Time;durP1;ratioP1;P1;durP2;ratioP2;P2;SDS_P1;SDS_P2;PMS_P1;PMS_P2;Temp;Humidity;BMP_temperature;BMP_pressure;BME280_temperature;BME280_humidity;BME280_pressure;Samples;Min_cycle;Max_cycle;Signal;HPM_P1;HPM_P2
2021/10/25 00:00:20;;;;;;;31.75;17.52;;;;;;;;;;5025146;28;20047;-48
2021/10/25 00:02:49;;;;;;;37.63;17.52;;;;;;;;;;5024583;28;20456;-48
2021/10/25 00:05:15;;;;;;;27.75;13.20;;;;;;;;;;5024973;28;20076;-47
2021/10/25 00:07:41;;;;;;;23.15;12.43;;;;;;;;;;5024925;28;20021;-50
2021/10/25 00:10:11;;;;;;;35.85;17.65;;;;;;;;;;5024591;28;20577;-48
2021/10/25 00:12:42;;;;;;;25.88;12.57;;;;;;;;;;5024797;28;20022;-47
2021/10/25 00:15:09;;;;;;;18.40;10.10;;;;;;;;;;5024919;28;20025;-49
2021/10/25 00:17:36;;;;;;;30.05;15.15;;;;;;;;;;5025030;28;20286;-49
2021/10/25 00:20:02;;;;;;;33.58;16.70;;;;;;;;;;5024572;28;20026;-48
2021/10/25 00:22:28;;;;;;;23.65;11.40;;;;;;;;;;5025553;28;20037;-47
2021/10/25 00:24:54;;;;;;;22.05;12.07;;;;;;;;;;5024501;28;20111;-48
2021/10/25 00:27:23;;;;;;;21.08;11.25;;;;;;;;;;5076423;28;20032;-47
2021/10/25 00:29:49;;;;;;;23.08;11.85;;;;;;;;;;5076217;28;20468;-47
2021/10/25 00:32:16;;;;;;;25.48;11.25;;;;;;;;;;5076070;28;20107;-47
2021/10/25 00:34:42;;;;;;;19.30;10.98;;;;;;;;;;5076140;28;20025;-47
2021/10/25 00:37:08;;;;;;;25.83;12.38;;;;;;;;;;5076101;28;20016;-47
2021/10/25 00:39:36;;;;;;;22.02;11.00;;;;;;;;;;5064908;28;20146;-47
2021/10/25 00:42:03;;;;;;;20.88;10.30;;;;;;;;;;5055966;28;20067;-48
2021/10/25 00:44:30;;;;;;;22.23;11.00;;;;;;;;;;5056082;28;20483;-47
2021/10/25 00:46:56;;;;;;;26.42;13.45;;;;;;;;;;5055944;28;20052;-47
2021/10/25 00:49:23;;;;;;;24.80;13.25;;;;;;;;;;5055884;28;20025;-44
2021/10/25 00:51:50;;;;;;;23.40;12.00;;;;;;;;;;5056022;28;20067;-45
2021/10/25 00:54:17;;;;;;;22.63;11.40;;;;;;;;;;5055827;28;20032;-48
2021/10/25 00:56:44;;;;;;;33.53;18.17;;;;;;;;;;5055874;28;20025;-46
2021/10/25 00:59:11;;;;;;;50.05;23.92;;;;;;;;;;5055749;28;20053;-45
2021/10/25 01:01:38;;;;;;;22.67;12.18;;;;;;;;;;5055534;28;20063;-45
2021/10/25 01:04:04;;;;;;;27.13;14.45;;;;;;;;;;5055394;28;20049;-46
2021/10/25 01:06:30;;;;;;;15.52;9.93;;;;;;;;;;5054876;28;20032;-47
2021/10/25 01:09:02;;;;;;;20.70;10.27;;;;;;;;;;5053989;28;20350;-46
2021/10/25 01:11:28;;;;;;;17.48;9.40;;;;;;;;;;5055583;28;20039;-46
2021/10/25 01:13:54;;;;;;;24.85;12.43;;;;;;;;;;5055552;28;20100;-47
2021/10/25 01:16:21;;;;;;;18.15;9.93;;;;;;;;;;5055423;28;20079;-50
2021/10/25 01:18:48;;;;;;;16.95;9.38;;;;;;;;;;5055282;28;20108;-46
2021/10/25 01:21:14;;;;;;;24.92;11.52;;;;;;;;;;5055299;28;20507;-47
2021/10/25 01:23:40;;;;;;;16.10;8.98;;;;;;;;;;5055372;28;20025;-47
2021/10/25 01:26:07;;;;;;;25.73;11.45;;;;;;;;;;5054920;28;20485;-47
2021/10/25 01:28:34;;;;;;;29.02;12.98;;;;;;;;;;5055268;28;20469;-48
2021/10/25 01:31:06;;;;;;;24.55;11.77;;;;;;;;;;5055211;28;20037;-48
2021/10/25 01:33:33;;;;;;;23.38;11.40;;;;;;;;;;5055159;28;20028;-48
2021/10/25 01:36:00;;;;;;;22.75;11.40;;;;;;;;;;5055266;28;20024;-48
2021/10/25 01:38:26;;;;;;;20.23;10.80;;;;;;;;;;5054925;28;20029;-48
2021/10/25 01:40:54;;;;;;;23.35;11.77;;;;;;;;;;5055200;28;20044;-48
2021/10/25 01:43:20;;;;;;;22.20;12.27;;;;;;;;;;5055056;28;20043;-48
2021/10/25 01:45:47;;;;;;;34.35;17.10;;;;;;;;;;5054988;28;20461;-47
2021/10/25 01:48:13;;;;;;;30.80;16.35;;;;;;;;;;5054740;28;20027;-47
2021/10/25 01:50:39;;;;;;;27.83;12.57;;;;;;;;;;5055067;28;20397;-47
2021/10/25 01:53:06;;;;;;;24.20;11.90;;;;;;;;;;5055060;28;20485;-48
2021/10/25 01:55:32;;;;;;;18.88;10.88;;;;;;;;;;5054614;28;20116;-47
2021/10/25 01:57:58;;;;;;;22.40;10.50;;;;;;;;;;5053727;28;20400;-46
2021/10/25 02:00:24;;;;;;;22.88;11.73;;;;;;;;;;5054788;28;20025;-47
2021/10/25 02:02:51;;;;;;;15.48;8.68;;;;;;;;;;5054446;28;20029;-48
2021/10/25 02:05:17;;;;;;;27.42;12.68;;;;;;;;;;5054500;28;20045;-47
2021/10/25 02:07:44;;;;;;;20.23;10.38;;;;;;;;;;5054693;28;20017;-47
2021/10/25 02:10:11;;;;;;;19.00;10.55;;;;;;;;;;5054430;28;20021;-47
2021/10/25 02:12:37;;;;;;;18.85;9.85;;;;;;;;;;5054508;28;20021;-47
2021/10/25 02:15:04;;;;;;;17.15;10.07;;;;;;;;;;5054551;28;20339;-48
2021/10/25 02:17:35;;;;;;;17.48;9.90;;;;;;;;;;5053229;28;20100;-47
2021/10/25 02:20:03;;;;;;;20.63;10.05;;;;;;;;;;5054389;28;20491;-47
2021/10/25 02:22:29;;;;;;;20.02;9.27;;;;;;;;;;5054441;28;20056;-47
2021/10/25 02:24:56;;;;;;;17.58;9.43;;;;;;;;;;5054053;28;20118;-47
2021/10/25 02:27:23;;;;;;;17.55;9.15;;;;;;;;;;5054233;28;20033;-47
2021/10/25 02:29:51;;;;;;;19.23;11.05;;;;;;;;;;5054161;28;20044;-48
2021/10/25 02:32:18;;;;;;;18.23;9.10;;;;;;;;;;5054068;28;20033;-47
2021/10/25 02:34:47;;;;;;;16.75;9.43;;;;;;;;;;5054123;28;20017;-47
2021/10/25 02:37:14;;;;;;;15.27;8.73;;;;;;;;;;5054144;28;20108;-47
2021/10/25 02:39:40;;;;;;;19.90;9.80;;;;;;;;;;5053887;28;20021;-47
2021/10/25 02:42:06;;;;;;;18.48;9.57;;;;;;;;;;5053958;28;20017;-47
2021/10/25 02:44:32;;;;;;;18.13;8.30;;;;;;;;;;5053905;28;20021;-47
2021/10/25 02:46:59;;;;;;;15.98;8.73;;;;;;;;;;5053684;28;20037;-46
2021/10/25 02:49:25;;;;;;;19.30;9.77;;;;;;;;;;5053844;28;20017;-46
2021/10/25 02:51:52;;;;;;;18.63;9.30;;;;;;;;;;5053696;28;20031;-47
2021/10/25 02:54:18;;;;;;;18.05;9.48;;;;;;;;;;5053680;28;20029;-46
2021/10/25 02:56:44;;;;;;;24.38;10.05;;;;;;;;;;5053869;28;20033;-47
2021/10/25 02:59:10;;;;;;;18.73;9.90;;;;;;;;;;5053690;28;20529;-46
2021/10/25 03:01:40;;;;;;;18.52;8.23;;;;;;;;;;5053482;28;20025;-46
2021/10/25 03:04:07;;;;;;;17.75;8.93;;;;;;;;;;5053698;28;20155;-46
2021/10/25 03:06:37;;;;;;;20.73;9.57;;;;;;;;;;5053554;28;20444;-46
2021/10/25 03:09:04;;;;;;;17.85;8.55;;;;;;;;;;5053098;28;20031;-46
2021/10/25 03:11:30;;;;;;;15.80;8.73;;;;;;;;;;5053486;28;20021;-46
2021/10/25 03:13:56;;;;;;;20.38;8.68;;;;;;;;;;5053418;28;20025;-46
2021/10/25 03:16:23;;;;;;;15.68;9.35;;;;;;;;;;5053237;28;20020;-45
2021/10/25 03:18:50;;;;;;;23.75;10.93;;;;;;;;;;5053475;28;20021;-46
2021/10/25 03:21:17;;;;;;;16.55;9.25;;;;;;;;;;5053351;28;20031;-46
2021/10/25 03:23:48;;;;;;;19.40;10.57;;;;;;;;;;5053224;28;20032;-46
2021/10/25 03:26:14;;;;;;;;;;;;;;;;;;5053511;28;20590;-46
2021/10/25 03:28:41;;;;;;;19.38;10.27;;;;;;;;;;5052929;28;19905;-46
2021/10/25 03:31:07;;;;;;;19.10;9.40;;;;;;;;;;5053115;28;20025;-46
2021/10/25 03:33:34;;;;;;;20.00;10.07;;;;;;;;;;5053109;28;20028;-46
2021/10/25 03:36:02;;;;;;;18.45;10.68;;;;;;;;;;5053069;28;20021;-46
2021/10/25 03:38:30;;;;;;;17.02;9.95;;;;;;;;;;5052995;28;20061;-46
2021/10/25 03:40:57;;;;;;;23.05;11.88;;;;;;;;;;5053089;28;20142;-45
2021/10/25 03:43:30;;;;;;;18.08;9.23;;;;;;;;;;5053128;28;20372;-45
2021/10/25 03:46:11;;;;;;;16.92;10.27;;;;;;;;;;5053065;28;20117;-45
2021/10/25 03:48:43;;;;;;;23.08;9.88;;;;;;;;;;5053074;28;20159;-46
2021/10/25 03:51:12;;;;;;;19.23;9.70;;;;;;;;;;5053025;28;20029;-45
2021/10/25 04:29:27;;;;;;;27.60;14.48;;;;;;;;;;4991415;28;20161;-49
2021/10/25 04:31:53;;;;;;;25.63;13.38;;;;;;;;;;4991225;28;20165;-49
2021/10/25 04:34:19;;;;;;;41.05;15.02;;;;;;;;;;4991329;28;20059;-49
2021/10/25 04:36:46;;;;;;;30.40;15.15;;;;;;;;;;4991366;28;20496;-49
2021/10/25 04:39:13;;;;;;;28.63;15.85;;;;;;;;;;4997530;28;20130;-49
2021/10/25 04:41:39;;;;;;;32.20;14.27;;;;;;;;;;5013566;28;20068;-49
2021/10/25 04:44:08;;;;;;;23.70;11.93;;;;;;;;;;5000633;28;20549;-49
2021/10/25 04:46:34;;;;;;;29.35;15.20;;;;;;;;;;4994367;28;20133;-49
2021/10/25 04:49:01;;;;;;;32.53;16.17;;;;;;;;;;4994471;28;20026;-49
2021/10/25 04:51:28;;;;;;;30.42;15.90;;;;;;;;;;5017971;28;20037;-49
2021/10/25 04:53:55;;;;;;;28.73;14.57;;;;;;;;;;5035934;28;20053;-49
2021/10/25 04:56:21;;;;;;;40.22;19.50;;;;;;;;;;5035889;28;20033;-52
2021/10/25 04:58:47;;;;;;;34.75;15.90;;;;;;;;;;5035959;28;20470;-50
2021/10/25 05:01:13;;;;;;;29.13;14.00;;;;;;;;;;5035966;28;20033;-50
2021/10/25 05:03:39;;;;;;;25.17;13.65;;;;;;;;;;5054868;28;20032;-48
2021/10/25 05:06:15;;;;;;;24.33;13.60;;;;;;;;;;5055161;28;20120;-48
2021/10/25 05:08:41;;;;;;;27.60;14.02;;;;;;;;;;5055053;28;20025;-47
2021/10/25 05:11:07;;;;;;;26.60;13.40;;;;;;;;;;5055329;28;20032;-47
2021/10/25 05:13:35;;;;;;;27.23;13.95;;;;;;;;;;5055922;28;20104;-47
2021/10/25 05:16:02;;;;;;;29.30;16.02;;;;;;;;;;5055355;28;20032;-46
2021/10/25 05:18:30;;;;;;;29.77;17.38;;;;;;;;;;5055412;28;20031;-47
2021/10/25 05:20:56;;;;;;;31.20;16.83;;;;;;;;;;5054938;28;20013;-47
2021/10/25 05:23:22;;;;;;;35.22;17.85;;;;;;;;;;5055343;28;20427;-45
2021/10/25 05:25:50;;;;;;;28.73;14.90;;;;;;;;;;5054953;28;20053;-47
2021/10/25 05:28:18;;;;;;;32.28;15.70;;;;;;;;;;5055320;28;20049;-46
2021/10/25 05:30:45;;;;;;;29.75;15.75;;;;;;;;;;5055128;28;20512;-46
2021/10/25 05:33:14;;;;;;;37.60;18.30;;;;;;;;;;5054243;28;20037;-46
2021/10/25 05:35:40;;;;;;;31.13;16.60;;;;;;;;;;5055179;28;20047;-46
2021/10/25 05:38:06;;;;;;;31.63;16.13;;;;;;;;;;5055425;28;20033;-47
2021/10/25 05:40:32;;;;;;;37.85;19.27;;;;;;;;;;5054904;28;20075;-47
2021/10/25 05:43:01;;;;;;;29.20;15.90;;;;;;;;;;5055288;28;20074;-47
2021/10/25 05:45:29;;;;;;;37.33;18.30;;;;;;;;;;5054902;28;20013;-47
2021/10/25 05:47:55;;;;;;;36.15;17.92;;;;;;;;;;5054994;28;20033;-47
2021/10/25 05:50:21;;;;;;;38.30;21.23;;;;;;;;;;5054666;28;20104;-47
2021/10/25 05:52:47;;;;;;;38.85;21.58;;;;;;;;;;5054869;28;20029;-47
2021/10/25 05:55:16;;;;;;;41.00;21.38;;;;;;;;;;5054919;28;20025;-47
2021/10/25 05:57:42;;;;;;;42.67;20.80;;;;;;;;;;5054893;28;20096;-46
2021/10/25 06:00:08;;;;;;;39.22;21.45;;;;;;;;;;5054671;28;20530;-47
2021/10/25 06:02:36;;;;;;;47.53;23.30;;;;;;;;;;5054837;28;20048;-47
2021/10/25 06:05:05;;;;;;;57.00;26.80;;;;;;;;;;5054482;28;20501;-46
2021/10/25 06:07:31;;;;;;;46.50;24.80;;;;;;;;;;5054482;28;20506;-46
2021/10/25 06:10:01;;;;;;;39.25;21.33;;;;;;;;;;5054423;28;20029;-47
2021/10/25 06:12:36;;;;;;;36.53;19.65;;;;;;;;;;5054540;28;20021;-47
2021/10/25 06:15:08;;;;;;;47.05;22.10;;;;;;;;;;5053256;28;20025;-47
2021/10/25 06:20:01;;;;;;;38.88;20.67;;;;;;;;;;5054271;28;20035;-47
2021/10/25 06:22:29;;;;;;;42.40;22.05;;;;;;;;;;5054636;28;20079;-47
2021/10/25 06:24:57;;;;;;;40.08;23.60;;;;;;;;;;5054066;28;20060;-47
2021/10/25 06:27:23;;;;;;;37.17;21.10;;;;;;;;;;5054166;28;20497;-47
2021/10/25 06:29:49;;;;;;;48.03;25.25;;;;;;;;;;5054370;28;20113;-47
2021/10/25 06:32:16;;;;;;;34.22;19.40;;;;;;;;;;5054399;28;20025;-47
2021/10/25 06:34:45;;;;;;;36.13;18.90;;;;;;;;;;5054006;28;20543;-48
2021/10/25 06:37:11;;;;;;;34.80;19.85;;;;;;;;;;5054201;28;20389;-47
2021/10/25 06:39:42;;;;;;;36.58;18.23;;;;;;;;;;5053847;28;20025;-48
2021/10/25 06:42:09;;;;;;;;;;;;;;;;;;5054463;28;20086;-48
2021/10/25 06:44:46;;;;;;;33.53;18.55;;;;;;;;;;5054374;28;19905;-48
2021/10/25 06:47:12;;;;;;;35.67;18.55;;;;;;;;;;5053983;28;20040;-47
2021/10/25 06:49:38;;;;;;;43.90;22.95;;;;;;;;;;5053924;28;20024;-48
2021/10/25 06:52:05;;;;;;;45.55;21.13;;;;;;;;;;5053889;28;20036;-48
2021/10/25 06:54:31;;;;;;;39.58;20.60;;;;;;;;;;5053725;28;20036;-47
2021/10/25 06:56:57;;;;;;;32.15;18.75;;;;;;;;;;5053583;28;20032;-48
2021/10/25 06:59:23;;;;;;;34.08;19.88;;;;;;;;;;5053634;28;20122;-48
2021/10/25 07:01:49;;;;;;;29.08;16.08;;;;;;;;;;5053685;28;20079;-48
2021/10/25 07:04:16;;;;;;;34.35;19.23;;;;;;;;;;5053155;28;20056;-48
2021/10/25 07:06:42;;;;;;;26.42;14.80;;;;;;;;;;5053425;28;20069;-48
2021/10/25 07:09:11;;;;;;;30.58;16.65;;;;;;;;;;5053304;28;20082;-48
2021/10/25 07:11:42;;;;;;;29.10;15.20;;;;;;;;;;5053354;28;20086;-49
2021/10/25 07:14:08;;;;;;;;;;;;;;;;;;5053736;28;20504;-49
2021/10/25 07:16:49;;;;;;;22.00;12.90;;;;;;;;;;5053569;28;19907;-48
2021/10/25 08:03:03;;;;;;;22.23;12.15;;;;;;;;;;5011222;28;20022;-48
2021/10/25 08:08:05;;;;;;;24.92;10.80;;;;;;;;;;5011151;28;20045;-49
2021/10/25 08:10:42;;;;;;;18.83;10.52;;;;;;;;;;4991207;28;20094;-47
2021/10/25 08:13:16;;;;;;;16.65;9.88;;;;;;;;;;4991859;28;20026;-49
2021/10/25 08:15:44;;;;;;;21.92;11.10;;;;;;;;;;4993072;28;20113;-49
2021/10/25 08:19:07;;;;;;;20.15;11.40;;;;;;;;;;4995138;28;20037;-49
2021/10/25 08:21:00;;;;;;;22.45;13.13;;;;;;;;;;5014482;28;20065;-49
2021/10/25 08:23:27;;;;;;;38.78;18.90;;;;;;;;;;5036886;28;20025;-50
2021/10/25 08:25:53;;;;;;;22.35;14.77;;;;;;;;;;5036483;28;20042;-50
2021/10/25 08:28:20;;;;;;;41.30;22.92;;;;;;;;;;5036617;28;20034;-50
2021/10/25 08:30:46;;;;;;;23.25;12.07;;;;;;;;;;5036736;28;20450;-49
2021/10/25 08:36:13;;;;;;;20.40;15.85;;;;;;;;;;5036649;28;20045;-49
2021/10/25 08:41:24;;;;;;;18.95;12.05;;;;;;;;;;5056416;28;20083;-50
2021/10/25 08:43:52;;;;;;;19.33;12.48;;;;;;;;;;5056053;28;20027;-49
2021/10/25 08:46:20;;;;;;;32.05;17.75;;;;;;;;;;5055916;28;20028;-50
2021/10/25 08:48:47;;;;;;;34.58;18.40;;;;;;;;;;5055977;28;20032;-50
2021/10/25 08:51:19;;;;;;;39.08;18.58;;;;;;;;;;5055801;28;20032;-49
2021/10/25 08:53:45;;;;;;;;;;;;;;;;;;5056246;28;20366;-49
2021/10/25 08:56:19;;;;;;;24.60;11.95;;;;;;;;;;5055812;28;19954;-52
2021/10/25 08:58:49;;;;;;;21.17;11.30;;;;;;;;;;5055758;28;20013;-51
2021/10/25 09:01:28;;;;;;;32.88;19.13;;;;;;;;;;5055632;28;20029;-50
2021/10/25 09:04:13;;;;;;;24.55;11.73;;;;;;;;;;5055679;28;20473;-50
2021/10/25 09:07:11;;;;;;;26.92;13.70;;;;;;;;;;5055626;28;20048;-49
2021/10/25 09:09:44;;;;;;;20.10;9.82;;;;;;;;;;5033839;28;20044;-50
2021/10/25 09:12:15;;;;;;;47.45;23.30;;;;;;;;;;5033612;28;20029;-50
2021/10/25 09:14:45;;;;;;;22.17;11.10;;;;;;;;;;5033579;28;20045;-50
2021/10/25 09:17:12;;;;;;;38.97;18.05;;;;;;;;;;5033426;28;20029;-51
2021/10/25 09:19:39;;;;;;;22.13;13.38;;;;;;;;;;5033392;28;20034;-50
2021/10/25 09:22:13;;;;;;;29.77;15.73;;;;;;;;;;5033385;28;20025;-50
2021/10/25 09:24:39;;;;;;;29.45;16.27;;;;;;;;;;5033195;28;20056;-50
2021/10/25 09:27:07;;;;;;;21.42;11.65;;;;;;;;;;5032765;28;20092;-50
2021/10/25 09:29:35;;;;;;;32.00;17.23;;;;;;;;;;5033312;28;20116;-51
2021/10/25 09:32:15;;;;;;;27.33;14.43;;;;;;;;;;5033289;28;20029;-50
2021/10/25 09:35:01;;;;;;;17.88;9.70;;;;;;;;;;5033294;28;20509;-51
2021/10/25 09:37:32;;;;;;;17.55;10.27;;;;;;;;;;5033194;28;20036;-50
2021/10/25 09:40:07;;;;;;;17.33;10.07;;;;;;;;;;5032978;28;20485;-49
2021/10/25 09:42:54;;;;;;;13.05;7.28;;;;;;;;;;5033067;28;20037;-48
2021/10/25 09:51:09;;;;;;;17.95;10.40;;;;;;;;;;5013463;28;20049;-49
2021/10/25 09:53:35;;;;;;;23.48;10.00;;;;;;;;;;5013257;28;20037;-51
2021/10/25 09:56:01;;;;;;;16.17;8.95;;;;;;;;;;5012939;28;20033;-49
2021/10/25 09:58:42;;;;;;;18.25;8.38;;;;;;;;;;5013098;28;20415;-49
2021/10/25 10:01:11;;;;;;;16.05;8.65;;;;;;;;;;5012962;28;20026;-50
2021/10/25 10:03:37;;;;;;;21.58;11.40;;;;;;;;;;5012906;28;20033;-50
2021/10/25 10:06:05;;;;;;;21.67;10.32;;;;;;;;;;5012801;28;20030;-48
2021/10/25 10:08:31;;;;;;;17.80;8.77;;;;;;;;;;5013107;28;20077;-49
2021/10/25 10:10:58;;;;;;;20.55;10.43;;;;;;;;;;5013074;28;20056;-48
2021/10/25 10:13:26;;;;;;;22.15;10.85;;;;;;;;;;5012762;28;20034;-50
2021/10/25 10:15:55;;;;;;;16.20;7.97;;;;;;;;;;5012716;28;20103;-49
2021/10/25 10:18:23;;;;;;;17.65;7.85;;;;;;;;;;5018720;28;20389;-50
2021/10/25 10:20:55;;;;;;;16.52;7.32;;;;;;;;;;5054480;28;20080;-49
2021/10/25 10:23:21;;;;;;;17.30;9.80;;;;;;;;;;5054234;28;20028;-50
2021/10/25 10:25:47;;;;;;;18.23;8.80;;;;;;;;;;5053069;28;20055;-49
2021/10/25 10:28:15;;;;;;;19.65;8.02;;;;;;;;;;5054352;28;20036;-50
2021/10/25 10:30:53;;;;;;;20.98;9.38;;;;;;;;;;5054197;28;20025;-50
2021/10/25 10:33:30;;;;;;;16.83;8.52;;;;;;;;;;5054046;28;20025;-50
2021/10/25 10:36:07;;;;;;;22.20;9.52;;;;;;;;;;5054312;28;20055;-49
2021/10/25 10:38:34;;;;;;;15.43;7.68;;;;;;;;;;5052880;28;20031;-49
2021/10/25 10:41:00;;;;;;;13.20;7.93;;;;;;;;;;5054080;28;20112;-49
2021/10/25 10:43:27;;;;;;;16.35;8.35;;;;;;;;;;5053743;28;20025;-49
2021/10/25 10:45:58;;;;;;;19.35;7.80;;;;;;;;;;5053611;28;20397;-50
2021/10/25 10:48:26;;;;;;;12.10;7.05;;;;;;;;;;5053441;28;20059;-49
2021/10/25 10:51:00;;;;;;;15.80;6.70;;;;;;;;;;5053438;28;20492;-49
2021/10/25 10:53:30;;;;;;;15.18;6.85;;;;;;;;;;5053842;28;20090;-49
2021/10/25 10:56:00;;;;;;;12.65;7.60;;;;;;;;;;5053768;28;20040;-50
2021/10/25 10:58:45;;;;;;;11.50;7.15;;;;;;;;;;5053732;28;20417;-50
2021/10/25 11:01:11;;;;;;;12.40;6.85;;;;;;;;;;5053768;28;20099;-49
2021/10/25 11:03:37;;;;;;;14.25;7.45;;;;;;;;;;5053573;28;20029;-49
2021/10/25 11:06:11;;;;;;;11.93;6.88;;;;;;;;;;5053477;28;20074;-49
2021/10/25 11:08:41;;;;;;;13.52;7.35;;;;;;;;;;5053430;28;20060;-49
2021/10/25 11:11:19;;;;;;;11.52;6.45;;;;;;;;;;5053202;28;20384;-49
2021/10/25 11:13:47;;;;;;;10.73;6.30;;;;;;;;;;5053370;28;20052;-49
2021/10/25 11:16:27;;;;;;;10.73;7.03;;;;;;;;;;5053366;28;20029;-48
2021/10/25 11:18:57;;;;;;;9.05;6.18;;;;;;;;;;5053384;28;20032;-50
2021/10/25 11:21:25;;;;;;;13.15;6.93;;;;;;;;;;5053424;28;20028;-50
2021/10/25 11:24:03;;;;;;;14.35;7.05;;;;;;;;;;5053180;28;20486;-51
2021/10/25 11:26:29;;;;;;;13.88;7.05;;;;;;;;;;5053400;28;20044;-49
2021/10/25 11:28:57;;;;;;;17.50;6.85;;;;;;;;;;5053440;28;20040;-49
2021/10/25 11:31:23;;;;;;;10.48;6.28;;;;;;;;;;5053434;28;20048;-51
2021/10/25 11:33:49;;;;;;;15.00;7.70;;;;;;;;;;5053285;28;20029;-50
2021/10/25 11:36:19;;;;;;;10.65;6.57;;;;;;;;;;5053278;28;20353;-49
2021/10/25 11:38:45;;;;;;;10.75;6.63;;;;;;;;;;5053163;28;20017;-49
2021/10/25 11:41:12;;;;;;;10.00;6.80;;;;;;;;;;5053172;28;20381;-49
2021/10/25 11:43:38;;;;;;;13.20;7.15;;;;;;;;;;5053100;28;20025;-49
2021/10/25 11:46:23;;;;;;;13.70;6.68;;;;;;;;;;5053165;28;20477;-49
2021/10/25 11:48:58;;;;;;;10.85;6.97;;;;;;;;;;5053359;28;20444;-49
2021/10/25 11:51:24;;;;;;;11.15;6.00;;;;;;;;;;5057230;28;20045;-49
2021/10/25 11:53:55;;;;;;;11.82;6.47;;;;;;;;;;5057089;28;20021;-49
2021/10/25 11:56:21;;;;;;;11.95;6.07;;;;;;;;;;5057179;28;20039;-49
2021/10/25 11:58:49;;;;;;;13.32;5.95;;;;;;;;;;5057129;28;20021;-49
2021/10/25 12:01:18;;;;;;;9.75;6.18;;;;;;;;;;5057174;28;20485;-49
2021/10/25 12:03:44;;;;;;;15.75;6.35;;;;;;;;;;5056967;28;20029;-49
2021/10/25 12:06:14;;;;;;;12.73;5.95;;;;;;;;;;5057051;28;20021;-50
2021/10/25 12:08:41;;;;;;;13.82;6.68;;;;;;;;;;5057061;28;20061;-50
2021/10/25 12:11:07;;;;;;;15.77;7.03;;;;;;;;;;5056848;28;20033;-50
2021/10/25 12:13:33;;;;;;;13.43;6.63;;;;;;;;;;5057043;28;20033;-50
2021/10/25 12:16:03;;;;;;;8.77;5.57;;;;;;;;;;5055847;28;20033;-50
2021/10/25 12:18:29;;;;;;;12.75;6.35;;;;;;;;;;5056759;28;20112;-50
2021/10/25 12:21:00;;;;;;;12.48;6.68;;;;;;;;;;5057055;28;20025;-49
2021/10/25 12:23:26;;;;;;;10.75;5.53;;;;;;;;;;5056877;28;20059;-50
2021/10/25 12:25:56;;;;;;;13.05;5.93;;;;;;;;;;5056635;28;20059;-49
2021/10/25 12:28:24;;;;;;;12.23;5.90;;;;;;;;;;5056665;28;20037;-47
2021/10/25 12:30:52;;;;;;;10.63;6.55;;;;;;;;;;5056699;28;20074;-50
2021/10/25 12:33:21;;;;;;;13.15;6.65;;;;;;;;;;5056798;28;20201;-47
2021/10/25 12:35:48;;;;;;;12.75;5.22;;;;;;;;;;5056409;28;20021;-50
2021/10/25 12:38:18;;;;;;;14.85;5.93;;;;;;;;;;5056244;28;20052;-48
2021/10/25 12:41:03;;;;;;;12.32;5.88;;;;;;;;;;5056453;28;20086;-48
2021/10/25 12:43:43;;;;;;;13.88;5.07;;;;;;;;;;5056237;28;20100;-48
2021/10/25 12:46:13;;;;;;;12.85;6.10;;;;;;;;;;5056446;28;20040;-48
2021/10/25 12:48:45;;;;;;;10.95;5.40;;;;;;;;;;5056059;28;20113;-48
2021/10/25 12:51:11;;;;;;;11.55;5.50;;;;;;;;;;5056026;28;20024;-48
2021/10/25 12:53:42;;;;;;;8.52;5.45;;;;;;;;;;5056143;28;20027;-49
2021/10/25 12:56:08;;;;;;;7.50;5.25;;;;;;;;;;5056410;28;20041;-48
2021/10/25 12:58:34;;;;;;;9.13;5.00;;;;;;;;;;5056103;28;20044;-49
2021/10/25 13:01:10;;;;;;;8.27;4.47;;;;;;;;;;5054998;28;20021;-48
2021/10/25 13:03:37;;;;;;;10.32;4.88;;;;;;;;;;5055946;28;20082;-48
2021/10/25 13:06:08;;;;;;;16.58;6.57;;;;;;;;;;5055671;28;20035;-49
2021/10/25 13:08:35;;;;;;;10.57;4.63;;;;;;;;;;5055661;28;20108;-48
2021/10/25 13:11:01;;;;;;;13.80;5.63;;;;;;;;;;5054168;28;20045;-49
2021/10/25 13:13:33;;;;;;;12.05;5.60;;;;;;;;;;5054500;28;20103;-48
2021/10/25 13:16:00;;;;;;;10.48;5.55;;;;;;;;;;5053809;28;20017;-49
2021/10/25 13:18:26;;;;;;;8.80;3.95;;;;;;;;;;5054613;28;20434;-48
2021/10/25 13:20:55;;;;;;;8.43;4.72;;;;;;;;;;5054952;28;20485;-49
2021/10/25 13:23:24;;;;;;;10.25;5.10;;;;;;;;;;5055218;28;20029;-49
2021/10/25 13:25:50;;;;;;;11.55;4.70;;;;;;;;;;5055114;28;20045;-48
2021/10/25 13:28:16;;;;;;;14.07;6.15;;;;;;;;;;5055439;28;20072;-49
2021/10/25 13:30:42;;;;;;;11.00;4.93;;;;;;;;;;5055552;28;20077;-49
2021/10/25 13:33:11;;;;;;;11.13;5.30;;;;;;;;;;5055224;28;20025;-49
2021/10/25 13:35:39;;;;;;;9.93;5.25;;;;;;;;;;5055050;28;20029;-49
2021/10/25 13:38:07;;;;;;;7.95;4.00;;;;;;;;;;5055187;28;20146;-49
2021/10/25 13:40:33;;;;;;;14.98;4.78;;;;;;;;;;5055051;28;20090;-48
2021/10/25 13:43:01;;;;;;;6.88;4.70;;;;;;;;;;5055322;28;20216;-49
2021/10/25 13:45:29;;;;;;;15.20;5.75;;;;;;;;;;5054919;28;20024;-48
2021/10/25 13:47:55;;;;;;;9.70;4.90;;;;;;;;;;5054939;28;20029;-49
2021/10/25 13:50:25;;;;;;;8.07;4.40;;;;;;;;;;5055019;28;20032;-49
2021/10/25 13:52:51;;;;;;;9.50;4.20;;;;;;;;;;5054696;28;20021;-48
2021/10/25 13:55:17;;;;;;;7.70;4.57;;;;;;;;;;5054048;28;20116;-49
2021/10/25 13:57:45;;;;;;;9.18;4.38;;;;;;;;;;5053573;28;20079;-49
2021/10/25 14:00:12;;;;;;;9.63;5.05;;;;;;;;;;5054172;28;20535;-49
2021/10/25 14:02:43;;;;;;;11.02;5.30;;;;;;;;;;5054291;28;20079;-49
2021/10/25 14:05:17;;;;;;;14.82;7.47;;;;;;;;;;5051519;28;20103;-49
2021/10/25 14:07:43;;;;;;;14.23;6.40;;;;;;;;;;5053841;28;20028;-49
2021/10/25 14:10:19;;;;;;;18.75;7.85;;;;;;;;;;5054399;28;20417;-49
2021/10/25 14:12:46;;;;;;;15.18;6.15;;;;;;;;;;5054549;28;20374;-48
2021/10/25 14:15:22;;;;;;;8.82;4.60;;;;;;;;;;5054534;28;20021;-49
2021/10/25 14:17:51;;;;;;;9.32;4.50;;;;;;;;;;5054611;28;20106;-49
2021/10/25 14:20:20;;;;;;;8.77;4.72;;;;;;;;;;5054242;28;20473;-48
2021/10/25 14:22:46;;;;;;;11.82;5.30;;;;;;;;;;5054395;28;20051;-48
2021/10/25 14:25:12;;;;;;;13.57;6.57;;;;;;;;;;5054204;28;20047;-49
2021/10/25 14:27:39;;;;;;;13.48;6.00;;;;;;;;;;5054098;28;20048;-49
2021/10/25 14:30:06;;;;;;;92.55;52.22;;;;;;;;;;5054195;28;20021;-49
2021/10/25 14:32:32;;;;;;;40.00;20.42;;;;;;;;;;5054023;28;20025;-50
2021/10/25 14:34:58;;;;;;;26.15;11.15;;;;;;;;;;5053024;28;20393;-50
2021/10/25 14:37:34;;;;;;;12.20;6.43;;;;;;;;;;5054024;28;20108;-49
2021/10/25 14:40:10;;;;;;;10.55;4.57;;;;;;;;;;5054077;28;20045;-50
2021/10/25 14:42:37;;;;;;;15.63;6.60;;;;;;;;;;5053152;28;20078;-49
2021/10/25 14:47:47;;;;;;;8.05;4.75;;;;;;;;;;5052973;28;20033;-50
2021/10/25 14:55:55;;;;;;;8.40;4.35;;;;;;;;;;5052105;28;20231;-49
2021/10/25 14:58:27;;;;;;;9.52;5.43;;;;;;;;;;5052119;28;20037;-50
2021/10/25 15:00:54;;;;;;;10.35;5.57;;;;;;;;;;5053401;28;20055;-49
2021/10/25 15:03:22;;;;;;;8.85;4.90;;;;;;;;;;5053411;28;20120;-50
2021/10/25 15:05:48;;;;;;;9.82;5.22;;;;;;;;;;5052980;28;20032;-50
2021/10/25 15:08:14;;;;;;;11.63;5.80;;;;;;;;;;5051622;28;20033;-50
2021/10/25 15:10:40;;;;;;;12.45;5.63;;;;;;;;;;5052932;28;20429;-49
2021/10/25 15:13:07;;;;;;;9.32;5.00;;;;;;;;;;5052932;28;20063;-50
2021/10/25 15:15:33;;;;;;;11.73;5.03;;;;;;;;;;5050072;28;20079;-49
2021/10/25 15:18:01;;;;;;;11.95;6.20;;;;;;;;;;5052932;28;20028;-49
2021/10/25 15:20:27;;;;;;;15.23;7.30;;;;;;;;;;5052842;28;20501;-49
2021/10/25 15:22:57;;;;;;;18.35;7.97;;;;;;;;;;5052742;28;20067;-49
2021/10/25 15:25:30;;;;;;;17.27;8.15;;;;;;;;;;5051870;28;20037;-50
2021/10/25 15:27:56;;;;;;;18.83;7.90;;;;;;;;;;5050598;28;20489;-51
2021/10/25 15:30:22;;;;;;;15.90;7.63;;;;;;;;;;5052676;28;20020;-49
2021/10/25 15:32:48;;;;;;;16.35;7.80;;;;;;;;;;5051514;28;20052;-49
2021/10/25 15:35:14;;;;;;;18.58;8.10;;;;;;;;;;5052565;28;20083;-50
2021/10/25 15:37:41;;;;;;;21.58;9.65;;;;;;;;;;5052969;28;20021;-50
2021/10/25 15:40:08;;;;;;;23.73;10.13;;;;;;;;;;5052872;28;20103;-49
2021/10/25 15:42:35;;;;;;;32.97;12.63;;;;;;;;;;5052416;28;20040;-52
2021/10/25 15:45:01;;;;;;;35.38;14.10;;;;;;;;;;5052163;28;20032;-50
2021/10/25 15:47:29;;;;;;;25.98;11.75;;;;;;;;;;5052302;28;20047;-50
2021/10/25 15:49:56;;;;;;;34.45;12.13;;;;;;;;;;5052476;28;20056;-49
2021/10/25 15:52:23;;;;;;;23.38;10.65;;;;;;;;;;5052267;28;20074;-50
2021/10/25 15:54:49;;;;;;;32.20;12.25;;;;;;;;;;5049762;28;20059;-50
2021/10/25 15:57:16;;;;;;;43.05;16.45;;;;;;;;;;5052489;28;20167;-49
2021/10/25 15:59:43;;;;;;;34.78;15.07;;;;;;;;;;5052244;28;20078;-49
2021/10/25 16:02:09;;;;;;;34.53;15.27;;;;;;;;;;5052500;28;20350;-50
2021/10/25 16:04:36;;;;;;;45.17;16.98;;;;;;;;;;5052238;28;20547;-51
2021/10/25 16:07:03;;;;;;;35.08;19.25;;;;;;;;;;5052121;28;20029;-49
2021/10/25 16:09:29;;;;;;;46.88;22.63;;;;;;;;;;5052179;28;20018;-49
2021/10/25 16:11:59;;;;;;;34.03;17.08;;;;;;;;;;5052519;28;20027;-49
2021/10/25 16:14:25;;;;;;;36.35;18.35;;;;;;;;;;5052342;28;20108;-48
2021/10/25 16:16:51;;;;;;;38.78;17.00;;;;;;;;;;5052399;28;20052;-50